Time;durP1;ratioP1;P1;durP2;ratioP2;P2;SDS_P1;SDS_P2;PMS_P1;PMS_P2;Temp;Humidity;BMP_temperature;BMP_pressure;BME280_temperature;BME280_humidity;BME280_pressure;Samples;Min_cycle;Max_cycle;Signal;HPM_P1;HPM_P2
2023/12/28 00:00:06;;;;;;;1.40;1.13;;;22.70;65.70;;;;;;5073213;28;20443;-86
2023/12/28 00:02:33;;;;;;;1.20;1.00;;;22.50;65.50;;;;;;5073690;28;20821;-87
2023/12/28 00:05:00;;;;;;;1.20;0.90;;;22.50;65.70;;;;;;5073610;28;20542;-86
2023/12/28 00:07:28;;;;;;;1.20;1.00;;;22.60;65.80;;;;;;5073741;28;20432;-86
2023/12/28 00:09:55;;;;;;;1.40;1.10;;;22.50;65.70;;;;;;5072994;28;20441;-86
2023/12/28 00:12:23;;;;;;;1.40;1.10;;;22.50;65.70;;;;;;5073712;28;20528;-86
2023/12/28 00:14:49;;;;;;;1.10;0.80;;;22.50;66.50;;;;;;5073636;28;20437;-86
2023/12/28 00:17:16;;;;;;;1.10;0.70;;;22.50;65.70;;;;;;5073712;28;20424;-86
2023/12/28 00:19:43;;;;;;;1.93;1.03;;;22.40;65.70;;;;;;5073559;28;20892;-86
2023/12/28 00:22:10;;;;;;;1.27;0.90;;;22.40;65.80;;;;;;5078574;28;20447;-86
2023/12/28 00:24:38;;;;;;;1.20;0.80;;;22.40;65.70;;;;;;5079661;28;20432;-86
2023/12/28 00:27:05;;;;;;;1.50;1.00;;;22.40;65.70;;;;;;5073407;28;20432;-86
2023/12/28 00:29:32;;;;;;;1.40;0.90;;;22.40;65.60;;;;;;5073495;28;20798;-86
2023/12/28 00:31:59;;;;;;;1.20;0.80;;;22.40;65.70;;;;;;5073257;28;20541;-86
2023/12/28 00:34:26;;;;;;;1.40;1.03;;;22.40;65.80;;;;;;5073328;28;20443;-86
2023/12/28 00:36:53;;;;;;;1.40;0.90;;;22.40;65.80;;;;;;5073400;28;20942;-86
2023/12/28 00:39:19;;;;;;;1.53;1.10;;;22.40;65.80;;;;;;5073215;28;20798;-86
2023/12/28 00:41:48;;;;;;;1.27;0.93;;;22.40;65.80;;;;;;5073360;28;20437;-86
2023/12/28 00:44:14;;;;;;;1.50;0.90;;;22.40;65.80;;;;;;5073204;28;20436;-86
2023/12/28 00:46:41;;;;;;;1.40;1.00;;;22.40;66.70;;;;;;5073147;28;20439;-86
2023/12/28 00:49:08;;;;;;;1.40;1.00;;;22.40;65.90;;;;;;5073183;28;20432;-86
2023/12/28 00:51:35;;;;;;;1.27;0.90;;;22.40;65.90;;;;;;5073008;28;20480;-86
2023/12/28 00:54:02;;;;;;;2.00;1.03;;;22.40;65.90;;;;;;5073204;28;20799;-85
2023/12/28 00:56:28;;;;;;;1.87;1.00;;;22.30;65.80;;;;;;5073112;28;20459;-87
2023/12/28 00:58:57;;;;;;;3.83;0.90;;;22.30;65.90;;;;;;5073089;28;20439;-87
2023/12/28 01:01:23;;;;;;;3.37;1.73;;;22.30;65.80;;;;;;5072953;28;20436;-86
2023/12/28 01:03:50;;;;;;;2.40;1.07;;;22.30;65.90;;;;;;5073126;28;20440;-86
2023/12/28 01:06:17;;;;;;;1.30;1.00;;;22.30;65.90;;;;;;5072791;28;20468;-86
2023/12/28 01:08:44;;;;;;;1.40;1.10;;;22.30;65.90;;;;;;5072936;28;20444;-86
2023/12/28 01:11:12;;;;;;;1.80;0.90;;;22.30;65.90;;;;;;5072918;28;20488;-86
2023/12/28 01:13:39;;;;;;;1.30;1.10;;;22.30;66.00;;;;;;5072967;28;20947;-87
2023/12/28 01:16:07;;;;;;;1.10;0.80;;;22.30;66.00;;;;;;5072845;28;20442;-86
2023/12/28 01:18:34;;;;;;;1.40;1.00;;;22.30;66.10;;;;;;5073130;28;20436;-87
2023/12/28 01:21:01;;;;;;;1.37;0.97;;;22.30;66.10;;;;;;5073731;28;20452;-86
2023/12/28 01:23:27;;;;;;;1.30;0.90;;;22.30;66.10;;;;;;5081959;28;20788;-86
2023/12/28 01:25:56;;;;;;;1.20;0.80;;;22.30;66.00;;;;;;5076843;28;20458;-86
2023/12/28 01:28:23;;;;;;;2.43;1.23;;;22.30;66.10;;;;;;5076927;28;20437;-88
2023/12/28 01:30:50;;;;;;;2.03;1.00;;;22.20;65.90;;;;;;5076969;28;20480;-86
2023/12/28 01:33:18;;;;;;;1.30;0.90;;;22.20;66.00;;;;;;5076675;28;20547;-86
2023/12/28 01:35:45;;;;;;;1.13;0.70;;;22.40;66.20;;;;;;5085606;28;20447;-86
2023/12/28 01:38:12;;;;;;;2.93;1.03;;;22.20;65.90;;;;;;5076695;28;21037;-86
2023/12/28 01:40:38;;;;;;;1.57;1.07;;;22.30;66.00;;;;;;5076598;28;20443;-86
2023/12/28 01:43:05;;;;;;;1.30;1.10;;;22.30;66.10;;;;;;5076736;28;20451;-86
2023/12/28 01:45:32;;;;;;;1.20;0.90;;;22.20;66.10;;;;;;5076514;28;20432;-85
2023/12/28 01:47:59;;;;;;;1.20;0.97;;;22.20;66.10;;;;;;5076545;28;20436;-85
2023/12/28 01:50:28;;;;;;;1.37;0.90;;;22.20;66.10;;;;;;5076423;28;20436;-86
2023/12/28 01:52:57;;;;;;;1.53;1.00;;;22.20;66.00;;;;;;5076487;28;20433;-86
2023/12/28 01:55:24;;;;;;;1.20;0.80;;;22.20;66.00;;;;;;5076225;28;20436;-87
2023/12/28 01:57:51;;;;;;;1.20;0.90;;;22.20;66.10;;;;;;5076336;28;20928;-86
2023/12/28 02:00:18;;;;;;;1.67;1.13;;;22.30;66.10;;;;;;5076327;28;20466;-86
2023/12/28 02:02:46;;;;;;;1.40;1.00;;;22.20;66.00;;;;;;5076124;28;20456;-86
2023/12/28 02:05:13;;;;;;;1.20;0.80;;;22.20;66.00;;;;;;5075893;28;20483;-86
2023/12/28 02:07:41;;;;;;;1.57;0.93;;;22.30;67.00;;;;;;5076214;28;20440;-87
2023/12/28 02:10:08;;;;;;;1.40;1.10;;;22.20;66.00;;;;;;5076130;28;20961;-86
2023/12/28 02:12:35;;;;;;;1.40;0.90;;;22.20;66.00;;;;;;5075964;28;20490;-86
2023/12/28 02:15:02;;;;;;;1.10;0.80;;;22.20;66.00;;;;;;5075869;28;20523;-86
2023/12/28 02:17:34;;;;;;;1.20;0.90;;;22.20;66.00;;;;;;5076057;28;20443;-86
2023/12/28 02:20:05;;;;;;;1.43;1.17;;;22.20;66.00;;;;;;5075931;28;20436;-87
2023/12/28 02:22:32;;;;;;;1.30;0.97;;;22.30;67.00;;;;;;5082042;28;20465;-86
2023/12/28 02:25:05;;;;;;;1.30;1.00;;;22.30;66.00;;;;;;5087611;28;20478;-86
2023/12/28 02:27:32;;;;;;;1.40;0.93;;;22.30;66.00;;;;;;5091772;28;20445;-86
2023/12/28 02:29:59;;;;;;;1.60;0.93;;;22.30;66.00;;;;;;5091412;28;20447;-86
2023/12/28 02:32:40;;;;;;;1.20;0.83;;;22.30;66.00;;;;;;5095446;28;20486;-86
2023/12/28 02:35:18;;;;;;;1.10;0.80;;;22.30;66.00;;;;;;5095859;28;20436;-86
2023/12/28 02:37:47;;;;;;;1.20;0.97;;;22.30;65.90;;;;;;5095810;28;20527;-86
2023/12/28 02:40:17;;;;;;;1.20;1.00;;;22.30;66.00;;;;;;5095806;28;20961;-85
2023/12/28 02:42:44;;;;;;;1.23;1.03;;;22.30;66.00;;;;;;5095745;28;20439;-86
2023/12/28 02:45:11;;;;;;;1.40;1.00;;;22.30;66.00;;;;;;5085201;28;20436;-86
2023/12/28 02:47:38;;;;;;;1.53;0.90;;;22.30;66.00;;;;;;5075521;28;20428;-86
2023/12/28 02:50:06;;;;;;;1.40;1.00;;;22.30;66.00;;;;;;5075490;28;20578;-86
2023/12/28 02:52:33;;;;;;;1.20;1.10;;;22.30;65.90;;;;;;5075390;28;20495;-86
2023/12/28 02:54:59;;;;;;;1.27;1.00;;;22.30;66.00;;;;;;5075296;28;21164;-86
2023/12/28 02:57:27;;;;;;;1.60;1.17;;;22.30;66.00;;;;;;5075191;28;20448;-86
2023/12/28 02:59:56;;;;;;;1.30;1.00;;;22.40;66.10;;;;;;5075263;28;20428;-87
2023/12/28 03:02:23;;;;;;;1.20;0.90;;;22.30;66.00;;;;;;5075131;28;20547;-86
2023/12/28 03:04:50;;;;;;;1.20;0.80;;;22.30;66.00;;;;;;5074859;28;20471;-85
2023/12/28 03:07:17;;;;;;;1.70;1.17;;;22.30;66.00;;;;;;5074998;28;20441;-87
2023/12/28 03:09:43;;;;;;;1.20;1.00;;;22.20;65.20;;;;;;5080225;28;20434;-86
2023/12/28 03:12:10;;;;;;;1.20;0.80;;;22.30;66.00;;;;;;5094611;28;20487;-86
2023/12/28 03:14:38;;;;;;;1.40;1.10;;;22.30;65.90;;;;;;5093142;28;20443;-86
2023/12/28 03:17:05;;;;;;;1.50;0.87;;;22.40;66.10;;;;;;5095126;28;20802;-86
2023/12/28 03:19:32;;;;;;;1.30;0.93;;;22.30;65.90;;;;;;5094576;28;20793;-86
2023/12/28 03:21:59;;;;;;;1.40;1.00;;;22.30;66.80;;;;;;5090561;28;20440;-87
2023/12/28 03:24:26;;;;;;;1.63;1.17;;;22.30;65.90;;;;;;5094920;28;20446;-86
2023/12/28 03:26:52;;;;;;;1.10;0.73;;;22.30;65.90;;;;;;5075550;28;20447;-86
2023/12/28 03:29:19;;;;;;;1.20;0.80;;;22.30;65.90;;;;;;5074625;28;20440;-86
2023/12/28 03:31:47;;;;;;;1.30;1.00;;;22.30;65.90;;;;;;5074474;28;20503;-86
2023/12/28 03:34:14;;;;;;;1.40;0.90;;;22.30;65.90;;;;;;5073637;28;20440;-86
2023/12/28 03:36:41;;;;;;;1.20;0.83;;;22.30;65.90;;;;;;5074503;28;20445;-86
2023/12/28 03:39:09;;;;;;;1.23;0.90;;;22.30;65.90;;;;;;5086148;28;20447;-86
2023/12/28 03:41:36;;;;;;;1.40;1.00;;;22.30;65.90;;;;;;5094550;28;20853;-86
2023/12/28 03:44:02;;;;;;;1.20;0.80;;;22.30;65.90;;;;;;5094160;28;20458;-86
2023/12/28 03:46:29;;;;;;;1.20;0.80;;;22.30;66.00;;;;;;5093687;28;20436;-85
2023/12/28 03:48:57;;;;;;;1.13;0.90;;;22.30;66.00;;;;;;5085438;28;20532;-86
2023/12/28 03:51:24;;;;;;;1.73;1.00;;;22.30;65.90;;;;;;5074151;28;20964;-86
2023/12/28 03:53:51;;;;;;;1.30;1.10;;;22.30;65.90;;;;;;5074060;28;20519;-85
2023/12/28 03:56:25;;;;;;;1.27;1.00;;;22.20;65.90;;;;;;5074112;28;20436;-86
2023/12/28 03:58:52;;;;;;;1.93;1.10;;;22.20;65.90;;;;;;5074196;28;20946;-87
2023/12/28 04:01:26;;;;;;;1.33;0.83;;;22.20;65.90;;;;;;5073896;28;20432;-86
2023/12/28 04:03:52;;;;;;;1.30;0.90;;;22.20;65.90;;;;;;5073589;28;20501;-86
2023/12/28 04:06:20;;;;;;;1.20;0.90;;;22.20;65.90;;;;;;5073927;28;20811;-86
2023/12/28 04:08:47;;;;;;;1.60;1.07;;;22.20;65.90;;;;;;5073809;28;20437;-86
2023/12/28 04:11:14;;;;;;;1.50;1.00;;;22.20;65.90;;;;;;5073766;28;20443;-87
2023/12/28 04:13:41;;;;;;;1.20;0.80;;;22.30;65.90;;;;;;5073816;28;20446;-85
2023/12/28 04:16:09;;;;;;;1.40;0.90;;;22.20;65.80;;;;;;5073627;28;20957;-86
2023/12/28 04:18:36;;;;;;;1.20;0.90;;;22.20;65.80;;;;;;5073746;28;20990;-86
2023/12/28 04:21:03;;;;;;;1.80;1.20;;;22.20;65.80;;;;;;5072985;28;20454;-86
2023/12/28 04:23:31;;;;;;;3.70;1.20;;;22.20;65.90;;;;;;5081156;28;20444;-86
2023/12/28 04:25:59;;;;;;;1.63;0.90;;;22.20;65.90;;;;;;5079212;28;20441;-87
2023/12/28 04:28:26;;;;;;;1.20;0.80;;;22.20;65.90;;;;;;5079337;28;20436;-86
2023/12/28 04:30:53;;;;;;;1.40;1.00;;;22.20;65.80;;;;;;5093696;28;20436;-86
2023/12/28 04:33:20;;;;;;;1.10;0.80;;;22.20;65.90;;;;;;5073270;28;20491;-86
2023/12/28 04:35:46;;;;;;;1.60;0.90;;;22.30;66.00;;;;;;5073385;28;20440;-86
2023/12/28 04:38:14;;;;;;;1.60;0.77;;;22.20;65.90;;;;;;5077279;28;20807;-86
2023/12/28 04:40:43;;;;;;;9.07;1.53;;;22.20;65.90;;;;;;5093559;28;20443;-86
2023/12/28 04:43:09;;;;;;;1.20;0.80;;;22.20;65.90;;;;;;5085491;28;20432;-86
2023/12/28 04:45:36;;;;;;;1.23;0.90;;;22.20;65.90;;;;;;5073154;28;20436;-88
2023/12/28 04:48:03;;;;;;;1.50;1.17;;;22.20;65.90;;;;;;5073432;28;20440;-86
2023/12/28 04:50:30;;;;;;;1.33;0.93;;;22.20;65.90;;;;;;5073091;28;21010;-87
2023/12/28 04:52:57;;;;;;;1.20;0.90;;;22.30;66.00;;;;;;5073275;28;20994;-86
2023/12/28 04:55:24;;;;;;;1.40;0.90;;;22.20;65.80;;;;;;5073052;28;20527;-88
2023/12/28 04:57:52;;;;;;;1.50;0.90;;;22.20;65.80;;;;;;5072779;28;20451;-86
2023/12/28 05:00:19;;;;;;;1.27;0.93;;;22.20;65.90;;;;;;5073187;28;20535;-87
2023/12/28 05:02:46;;;;;;;1.20;1.10;;;22.30;66.00;;;;;;5072854;28;20460;-86
2023/12/28 05:05:13;;;;;;;1.50;1.10;;;22.20;65.90;;;;;;5072859;28;20472;-86
2023/12/28 05:07:41;;;;;;;1.20;1.00;;;22.30;65.90;;;;;;5073140;28;20514;-86
2023/12/28 05:10:08;;;;;;;1.10;0.70;;;22.30;65.90;;;;;;5073001;28;20440;-86
2023/12/28 05:12:35;;;;;;;1.50;1.07;;;22.30;65.80;;;;;;5072919;28;20492;-86
2023/12/28 05:15:04;;;;;;;1.10;0.80;;;22.30;65.80;;;;;;5072785;28;20436;-87
2023/12/28 05:17:31;;;;;;;1.60;1.00;;;22.30;65.80;;;;;;5072926;28;20532;-86
2023/12/28 05:19:58;;;;;;;1.30;1.00;;;22.30;65.80;;;;;;5072875;28;20433;-86
2023/12/28 05:22:25;;;;;;;1.50;1.00;;;22.30;65.80;;;;;;5072598;28;20448;-87
2023/12/28 05:24:51;;;;;;;1.70;1.30;;;22.30;65.80;;;;;;5087364;28;20439;-86
2023/12/28 05:27:18;;;;;;;1.30;0.97;;;22.30;65.80;;;;;;5081222;28;20443;-86
2023/12/28 05:29:45;;;;;;;1.50;0.80;;;22.30;65.80;;;;;;5072926;28;20435;-87
2023/12/28 05:32:13;;;;;;;2.00;1.00;;;22.30;65.80;;;;;;5084957;28;20537;-86
2023/12/28 05:34:40;;;;;;;2.07;1.03;;;22.30;65.70;;;;;;5088300;28;20793;-86
2023/12/28 05:37:07;;;;;;;1.50;0.80;;;22.30;65.70;;;;;;5075022;28;20474;-86
2023/12/28 05:39:33;;;;;;;1.10;0.90;;;22.30;65.70;;;;;;5072793;28;20436;-86
2023/12/28 05:42:00;;;;;;;2.03;0.90;;;22.30;65.70;;;;;;5072646;28;20441;-88
2023/12/28 05:44:27;;;;;;;1.20;0.93;;;22.30;65.70;;;;;;5072609;28;20527;-86
2023/12/28 05:46:54;;;;;;;1.20;1.03;;;22.30;65.70;;;;;;5072586;28;20436;-86
2023/12/28 05:49:22;;;;;;;1.30;1.00;;;22.30;65.70;;;;;;5072646;28;20531;-87
2023/12/28 05:51:49;;;;;;;1.57;1.03;;;22.30;65.70;;;;;;5072523;28;20432;-86
2023/12/28 05:54:15;;;;;;;1.40;1.07;;;22.30;65.70;;;;;;5072517;28;20432;-86
2023/12/28 05:56:42;;;;;;;1.30;1.03;;;22.30;65.70;;;;;;5072591;28;20448;-87
2023/12/28 05:59:09;;;;;;;1.20;0.80;;;22.30;65.70;;;;;;5072458;28;20440;-86
2023/12/28 06:01:43;;;;;;;1.50;0.93;;;22.30;65.70;;;;;;5072308;28;20544;-86
2023/12/28 06:04:10;;;;;;;1.43;0.73;;;22.30;65.70;;;;;;5072318;28;20437;-86
2023/12/28 06:06:38;;;;;;;1.20;0.80;;;22.30;65.70;;;;;;5072539;28;20442;-86
2023/12/28 06:09:04;;;;;;;1.50;0.80;;;22.30;65.70;;;;;;5074438;28;20436;-86
2023/12/28 06:11:31;;;;;;;1.20;0.90;;;22.30;65.70;;;;;;5076213;28;20432;-86
2023/12/28 06:13:58;;;;;;;1.20;0.90;;;22.30;65.70;;;;;;5075987;28;21013;-86
2023/12/28 06:16:25;;;;;;;1.10;0.80;;;22.30;65.70;;;;;;5076722;28;20958;-86
2023/12/28 06:18:52;;;;;;;1.20;0.87;;;22.30;65.70;;;;;;5083028;28;20498;-86
2023/12/28 06:21:19;;;;;;;1.10;0.80;;;22.30;65.60;;;;;;5075387;28;20450;-86
2023/12/28 06:23:47;;;;;;;1.20;0.90;;;22.30;65.60;;;;;;5076277;28;20451;-86
2023/12/28 06:26:13;;;;;;;1.50;0.90;;;22.40;65.70;;;;;;5089039;28;20530;-86
2023/12/28 06:28:40;;;;;;;1.40;0.90;;;22.40;65.70;;;;;;5096044;28;20843;-86
2023/12/28 06:31:07;;;;;;;1.30;1.00;;;22.40;65.60;;;;;;5095902;28;20434;-86
2023/12/28 06:33:34;;;;;;;1.23;0.80;;;22.40;65.60;;;;;;5087859;28;20487;-86
2023/12/28 06:36:06;;;;;;;1.30;0.90;;;22.40;65.60;;;;;;5075675;28;20432;-86
2023/12/28 06:38:33;;;;;;;1.97;1.00;;;22.40;65.60;;;;;;5075787;28;20953;-86
2023/12/28 06:41:01;;;;;;;1.50;0.80;;;22.40;65.60;;;;;;5075819;28;20437;-88
2023/12/28 06:43:28;;;;;;;1.17;0.87;;;22.40;65.50;;;;;;5082233;28;20436;-86
2023/12/28 06:45:55;;;;;;;1.20;0.87;;;22.40;65.50;;;;;;5095679;28;20534;-85
2023/12/28 06:48:21;;;;;;;1.20;0.87;;;22.40;65.50;;;;;;5095603;28;20530;-86
2023/12/28 06:50:48;;;;;;;1.27;0.93;;;22.40;65.50;;;;;;5075653;28;20927;-86
2023/12/28 06:53:15;;;;;;;1.30;1.00;;;22.40;66.30;;;;;;5075376;28;20990;-87
2023/12/28 06:55:42;;;;;;;1.20;0.80;;;22.40;65.50;;;;;;5075262;28;20440;-86
2023/12/28 06:58:10;;;;;;;1.40;0.90;;;22.40;65.50;;;;;;5075281;28;20437;-86
2023/12/28 07:00:37;;;;;;;1.40;1.00;;;22.40;65.50;;;;;;5075223;28;20439;-86
2023/12/28 07:03:04;;;;;;;1.20;1.00;;;22.40;65.50;;;;;;5075134;28;20476;-86
2023/12/28 07:05:30;;;;;;;1.10;0.80;;;22.40;65.50;;;;;;5074956;28;20487;-87
2023/12/28 07:07:57;;;;;;;1.27;1.00;;;22.50;65.60;;;;;;5075115;28;20939;-85
2023/12/28 07:10:24;;;;;;;1.20;0.90;;;22.40;65.50;;;;;;5075048;28;20444;-86
2023/12/28 07:12:51;;;;;;;1.23;0.87;;;22.40;65.50;;;;;;5074931;28;20979;-85
2023/12/28 07:15:19;;;;;;;1.20;0.90;;;22.40;65.40;;;;;;5074901;28;20440;-86
2023/12/28 07:17:46;;;;;;;1.53;1.03;;;22.40;65.40;;;;;;5074900;28;20432;-86
2023/12/28 07:20:13;;;;;;;1.33;1.10;;;22.40;65.40;;;;;;5074621;28;20436;-86
2023/12/28 07:22:40;;;;;;;1.20;0.90;;;22.40;65.40;;;;;;5082636;28;20853;-87
2023/12/28 07:25:07;;;;;;;1.23;0.90;;;22.40;65.50;;;;;;5080001;28;20448;-87
2023/12/28 07:27:34;;;;;;;1.27;0.93;;;22.40;65.50;;;;;;5077210;28;20531;-89
2023/12/28 07:30:01;;;;;;;1.20;0.87;;;22.40;65.50;;;;;;5077676;28;20930;-86
2023/12/28 07:32:31;;;;;;;1.77;0.80;;;22.40;65.40;;;;;;5079018;28;20474;-86
2023/12/28 07:34:58;;;;;;;1.40;1.10;;;22.40;65.40;;;;;;5074513;28;20939;-85
2023/12/28 07:37:25;;;;;;;1.20;0.80;;;22.40;65.50;;;;;;5074210;28;20816;-86
2023/12/28 07:39:53;;;;;;;1.57;1.10;;;22.40;65.50;;;;;;5074424;28;20520;-86
2023/12/28 07:42:19;;;;;;;1.30;0.80;;;22.40;65.50;;;;;;5073857;28;20494;-85
2023/12/28 07:44:46;;;;;;;1.20;0.80;;;22.40;65.40;;;;;;5073901;28;20923;-86
2023/12/28 07:47:14;;;;;;;1.30;0.90;;;22.40;65.50;;;;;;5073820;28;20428;-85
2023/12/28 07:49:42;;;;;;;3.13;0.80;;;22.40;65.50;;;;;;5073796;28;20436;-86
2023/12/28 07:52:09;;;;;;;1.63;0.87;;;22.40;65.50;;;;;;5073912;28;20539;-85
2023/12/28 07:54:36;;;;;;;1.50;0.90;;;22.40;65.60;;;;;;5073856;28;20495;-86
2023/12/28 07:57:02;;;;;;;1.97;1.00;;;22.40;65.60;;;;;;5074192;28;20448;-86
2023/12/28 07:59:29;;;;;;;1.13;0.80;;;22.40;65.60;;;;;;5073789;28;20433;-85
2023/12/28 08:01:56;;;;;;;1.30;0.87;;;22.40;65.60;;;;;;5073634;28;20538;-85
2023/12/28 08:04:23;;;;;;;1.20;0.90;;;22.40;65.50;;;;;;5073435;28;20487;-85
2023/12/28 08:06:51;;;;;;;1.70;1.10;;;22.50;65.70;;;;;;5073242;28;20451;-86
2023/12/28 08:09:18;;;;;;;1.20;0.80;;;22.40;65.50;;;;;;5073505;28;20447;-86
2023/12/28 08:11:45;;;;;;;2.80;1.00;;;22.40;65.60;;;;;;5073993;28;20446;-85
2023/12/28 08:14:12;;;;;;;1.17;0.80;;;22.50;65.70;;;;;;5073897;28;20545;-86
2023/12/28 08:16:38;;;;;;;1.20;0.80;;;22.40;65.70;;;;;;5073860;28;21011;-86
2023/12/28 08:19:05;;;;;;;1.27;0.83;;;22.40;65.60;;;;;;5074095;28;20527;-88
2023/12/28 08:21:32;;;;;;;2.53;0.80;;;22.50;65.80;;;;;;5073857;28;20809;-86
2023/12/28 08:24:00;;;;;;;1.40;1.10;;;22.50;65.90;;;;;;5073985;28;20443;-86
2023/12/28 08:26:26;;;;;;;1.20;0.90;;;22.50;65.90;;;;;;5074311;28;20450;-85
2023/12/28 08:28:53;;;;;;;2.13;0.90;;;22.50;66.90;;;;;;5089399;28;20448;-91
2023/12/28 08:31:20;;;;;;;1.37;1.00;;;22.50;65.80;;;;;;5093234;28;20546;-89
2023/12/28 08:33:46;;;;;;;1.77;1.00;;;22.50;65.80;;;;;;5093435;28;21012;-88
2023/12/28 08:36:13;;;;;;;1.20;0.97;;;22.50;65.90;;;;;;5093813;28;20517;-89
2023/12/28 08:38:40;;;;;;;1.47;0.80;;;22.50;65.80;;;;;;5093739;28;20431;-87
2023/12/28 08:41:09;;;;;;;2.03;0.90;;;22.50;65.80;;;;;;5094152;28;20526;-87
2023/12/28 08:43:36;;;;;;;2.17;0.80;;;22.60;66.00;;;;;;5089031;28;20568;-87
2023/12/28 08:46:03;;;;;;;1.50;1.00;;;22.50;65.90;;;;;;5073271;28;20437;-86
2023/12/28 08:48:29;;;;;;;1.47;1.00;;;22.50;66.00;;;;;;5073689;28;20531;-87
2023/12/28 08:50:56;;;;;;;6.30;1.10;;;22.50;66.00;;;;;;5073389;28;20440;-88
2023/12/28 08:53:23;;;;;;;1.50;1.00;;;22.50;66.00;;;;;;5073721;28;20500;-92
2023/12/28 08:55:50;;;;;;;1.77;1.00;;;22.60;66.10;;;;;;5073955;28;20450;-88
2023/12/28 08:58:18;;;;;;;1.70;0.93;;;22.50;65.90;;;;;;5073342;28;20471;-88
2023/12/28 09:00:46;;;;;;;4.40;1.30;;;22.50;65.90;;;;;;5073251;28;20440;-87
2023/12/28 09:03:13;;;;;;;1.40;0.90;;;22.50;65.90;;;;;;5073268;28;20448;-90
2023/12/28 09:05:40;;;;;;;1.30;1.07;;;22.50;65.90;;;;;;5073517;28;20558;-90
2023/12/28 09:08:07;;;;;;;3.13;1.10;;;22.70;65.10;;;;;;5073527;28;20436;-90
2023/12/28 09:10:34;;;;;;;2.23;0.90;;;22.60;65.40;;;;;;5073331;28;20439;-89
2023/12/28 09:13:01;;;;;;;2.00;1.00;;;22.50;65.40;;;;;;5073313;28;20440;-88
2023/12/28 09:15:29;;;;;;;1.97;0.90;;;22.60;65.60;;;;;;5072486;28;20803;-86
2023/12/28 09:17:57;;;;;;;2.33;0.80;;;22.50;65.50;;;;;;5079150;28;20523;-87
2023/12/28 09:20:24;;;;;;;1.27;0.97;;;22.50;65.70;;;;;;5072146;28;20947;-88
2023/12/28 09:22:56;;;;;;;2.80;1.10;;;22.50;65.70;;;;;;5080115;28;20446;-89
2023/12/28 09:25:22;;;;;;;1.33;0.90;;;22.50;65.70;;;;;;5092310;28;20440;-90
2023/12/28 09:27:49;;;;;;;2.93;1.03;;;22.50;65.70;;;;;;5086650;28;20450;-91
2023/12/28 09:30:16;;;;;;;1.90;1.00;;;22.50;65.70;;;;;;5073030;28;20441;-87
2023/12/28 09:32:45;;;;;;;1.20;0.90;;;22.50;65.70;;;;;;5072322;28;20475;-89
2023/12/28 09:35:12;;;;;;;1.27;1.00;;;22.50;65.70;;;;;;5072539;28;20533;-88
2023/12/28 09:37:39;;;;;;;1.30;0.93;;;22.60;65.80;;;;;;5073364;28;20449;-87
2023/12/28 09:40:07;;;;;;;1.40;0.90;;;22.60;65.80;;;;;;5073590;28;20526;-90
2023/12/28 09:42:41;;;;;;;1.30;0.80;;;22.60;65.70;;;;;;5074905;28;20444;-90
2023/12/28 09:45:09;;;;;;;2.13;1.00;;;22.60;65.60;;;;;;5084549;28;20456;-88
2023/12/28 09:47:37;;;;;;;1.33;0.90;;;22.60;65.60;;;;;;5081801;28;20435;-90
2023/12/28 09:50:06;;;;;;;1.93;0.80;;;22.60;65.60;;;;;;5098123;28;20443;-91
2023/12/28 09:52:33;;;;;;;1.60;0.90;;;22.70;65.60;;;;;;5081350;28;20448;-93
2023/12/28 09:55:00;;;;;;;3.53;1.20;;;22.70;65.60;;;;;;5082751;28;20484;-93
2023/12/28 09:57:27;;;;;;;1.50;1.00;;;22.70;66.50;;;;;;5080292;28;20843;-94
2023/12/28 09:59:55;;;;;;;3.43;1.00;;;22.70;65.70;;;;;;5082568;28;20441;-92
2023/12/28 10:02:22;;;;;;;1.77;0.90;;;22.70;65.70;;;;;;5081918;28;20521;-91
2023/12/28 10:04:49;;;;;;;1.60;0.83;;;22.70;65.70;;;;;;5076263;28;20471;-92
2023/12/28 10:07:17;;;;;;;1.30;1.00;;;22.70;65.60;;;;;;5079644;28;20435;-89
2023/12/28 10:09:44;;;;;;;8.57;2.77;;;22.70;65.60;;;;;;5075882;28;20444;-88
2023/12/28 10:12:10;;;;;;;9.17;2.13;;;22.80;65.10;;;;;;5074484;28;20442;-90
2023/12/28 10:14:37;;;;;;;3.20;1.70;;;22.80;64.40;;;;;;5075280;28;21251;-89
2023/12/28 10:17:05;;;;;;;3.40;1.80;;;22.70;64.00;;;;;;5075033;28;20455;-89
2023/12/28 10:19:31;;;;;;;2.93;1.80;;;22.70;63.50;;;;;;5078470;28;20471;-91
2023/12/28 10:21:59;;;;;;;7.27;2.10;;;22.70;63.90;;;;;;5090078;28;20451;-87
2023/12/28 10:24:27;;;;;;;5.70;1.90;;;22.70;63.30;;;;;;5075175;28;20436;-86
2023/12/28 10:26:54;;;;;;;4.07;1.60;;;22.60;63.80;;;;;;5074983;28;20459;-88
2023/12/28 10:29:21;;;;;;;4.70;1.33;;;22.60;64.00;;;;;;5091020;28;20450;-89
2023/12/28 10:31:50;;;;;;;3.33;1.30;;;22.60;64.00;;;;;;5095385;28;21058;-88
2023/12/28 10:34:16;;;;;;;3.67;1.50;;;22.60;64.00;;;;;;5082827;28;20485;-84
2023/12/28 10:36:43;;;;;;;2.90;1.33;;;22.60;64.00;;;;;;5074800;28;20437;-84
2023/12/28 10:39:13;;;;;;;2.50;1.30;;;22.60;64.00;;;;;;5075694;28;20791;-84
2023/12/28 10:41:44;;;;;;;1.87;1.37;;;22.60;64.10;;;;;;5073792;28;20483;-84
2023/12/28 10:44:16;;;;;;;3.97;1.50;;;22.60;64.10;;;;;;5073182;28;20441;-84
2023/12/28 10:46:45;;;;;;;2.70;1.20;;;22.60;64.80;;;;;;5073556;28;20813;-83
2023/12/28 10:49:13;;;;;;;3.10;2.07;;;22.70;65.50;;;;;;5073692;28;20445;-84
2023/12/28 10:51:43;;;;;;;3.30;1.90;;;22.70;65.30;;;;;;5073549;28;20509;-83
2023/12/28 10:54:21;;;;;;;3.63;1.40;;;22.70;65.60;;;;;;5072865;28;21012;-84
2023/12/28 10:56:57;;;;;;;7.40;1.67;;;22.70;65.60;;;;;;5074647;28;20919;-83
2023/12/28 10:59:33;;;;;;;4.87;1.60;;;22.80;65.70;;;;;;5075373;28;20436;-84
2023/12/28 11:02:03;;;;;;;4.20;1.70;;;22.80;65.90;;;;;;5075055;28;20460;-83
2023/12/28 11:04:35;;;;;;;3.23;1.20;;;22.80;65.70;;;;;;5075099;28;20476;-84
2023/12/28 11:07:03;;;;;;;2.30;1.53;;;22.80;65.80;;;;;;5074688;28;20438;-84
2023/12/28 11:09:32;;;;;;;2.47;1.53;;;22.80;65.70;;;;;;5074146;28;20443;-84
2023/12/28 11:12:01;;;;;;;2.97;1.63;;;22.80;65.80;;;;;;5075093;28;20858;-83
2023/12/28 11:14:29;;;;;;;1.93;1.03;;;22.70;65.70;;;;;;5074889;28;20484;-83
2023/12/28 11:16:58;;;;;;;7.27;1.30;;;22.80;65.90;;;;;;5075043;28;20774;-84
2023/12/28 11:19:25;;;;;;;2.90;1.40;;;22.80;65.90;;;;;;5075056;28;20443;-84
2023/12/28 11:21:52;;;;;;;3.10;1.40;;;22.80;65.80;;;;;;5074749;28;20441;-84
2023/12/28 11:24:20;;;;;;;4.60;1.50;;;22.80;65.80;;;;;;5074849;28;20437;-84
2023/12/28 11:26:54;;;;;;;3.40;1.20;;;22.80;65.80;;;;;;5074763;28;20887;-84
2023/12/28 11:29:23;;;;;;;2.30;1.47;;;22.80;65.80;;;;;;5074925;28;20443;-84
2023/12/28 11:31:52;;;;;;;3.60;1.43;;;22.80;65.80;;;;;;5074665;28;20461;-83
2023/12/28 11:34:19;;;;;;;4.50;1.57;;;22.80;65.80;;;;;;5074450;28;20546;-83
2023/12/28 11:36:50;;;;;;;3.43;1.30;;;22.80;65.80;;;;;;5074686;28;20443;-84
2023/12/28 11:39:24;;;;;;;3.27;1.13;;;22.80;65.80;;;;;;5074572;28;20443;-83
2023/12/28 11:41:51;;;;;;;4.27;1.20;;;22.80;65.70;;;;;;5074453;28;20439;-84
2023/12/28 11:44:18;;;;;;;2.60;1.10;;;22.80;65.70;;;;;;5074350;28;20440;-83
2023/12/28 11:46:46;;;;;;;3.97;1.50;;;22.80;65.70;;;;;;5074457;28;20437;-83
2023/12/28 11:49:13;;;;;;;3.40;1.20;;;22.80;65.70;;;;;;5074382;28;20447;-83
2023/12/28 11:51:41;;;;;;;2.60;1.10;;;22.80;65.60;;;;;;5074248;28;20440;-83
2023/12/28 11:54:07;;;;;;;1.90;1.20;;;22.80;65.50;;;;;;5074115;28;20507;-84
2023/12/28 11:56:34;;;;;;;1.77;1.20;;;22.80;65.40;;;;;;5074157;28;20441;-83
2023/12/28 11:59:01;;;;;;;2.37;1.13;;;22.90;65.40;;;;;;5074206;28;20436;-84
2023/12/28 12:01:28;;;;;;;2.70;1.40;;;22.90;65.40;;;;;;5074085;28;20456;-83
2023/12/28 12:03:56;;;;;;;2.57;1.00;;;22.90;65.40;;;;;;5073693;28;20441;-84
2023/12/28 12:06:24;;;;;;;2.87;1.47;;;22.90;65.30;;;;;;5073116;28;20452;-84
2023/12/28 12:08:51;;;;;;;3.20;1.07;;;22.90;65.30;;;;;;5073939;28;20455;-83
2023/12/28 12:11:18;;;;;;;1.57;1.07;;;22.90;65.20;;;;;;5073961;28;20436;-87
2023/12/28 12:13:45;;;;;;;1.77;1.20;;;22.90;65.20;;;;;;5073818;28;20446;-84
2023/12/28 12:16:15;;;;;;;2.57;1.10;;;23.00;65.20;;;;;;5074748;28;20947;-83
2023/12/28 12:18:42;;;;;;;2.70;1.30;;;22.90;65.00;;;;;;5098676;28;20440;-83
2023/12/28 12:21:10;;;;;;;1.60;1.10;;;23.00;65.30;;;;;;5095168;28;20443;-83
2023/12/28 12:23:40;;;;;;;2.07;1.20;;;23.00;65.40;;;;;;5094281;28;20977;-83
2023/12/28 12:26:08;;;;;;;2.20;1.10;;;23.00;65.60;;;;;;5094500;28;20454;-83
2023/12/28 12:28:35;;;;;;;3.67;1.33;;;23.00;65.70;;;;;;5094318;28;20432;-83
2023/12/28 12:31:02;;;;;;;3.33;1.50;;;23.00;65.80;;;;;;5094190;28;20946;-83
2023/12/28 12:33:30;;;;;;;2.60;1.20;;;23.00;65.80;;;;;;5094056;28;20443;-83
2023/12/28 12:35:57;;;;;;;1.93;0.97;;;23.10;66.10;;;;;;5094019;28;20490;-83
2023/12/28 12:38:26;;;;;;;2.67;1.23;;;23.00;66.00;;;;;;5094128;28;20997;-83
2023/12/28 12:40:53;;;;;;;2.47;1.30;;;23.10;66.10;;;;;;5095253;28;20874;-83
2023/12/28 12:43:20;;;;;;;3.60;1.27;;;23.00;66.00;;;;;;5094434;28;20471;-82
2023/12/28 12:45:48;;;;;;;2.60;1.30;;;23.00;66.00;;;;;;5094487;28;20842;-83
2023/12/28 12:48:15;;;;;;;2.13;1.70;;;23.10;66.20;;;;;;5094214;28;20447;-82